Time;durP1;ratioP1;P1;durP2;ratioP2;P2;SDS_P1;SDS_P2;PMS_P1;PMS_P2;Temp;Humidity;BMP_temperature;BMP_pressure;BME280_temperature;BME280_humidity;BME280_pressure;Samples;Min_cycle;Max_cycle;Signal;HPM_P1;HPM_P2
2023/12/02 00:01:30;;;;;;;10.77;7.47;;;;;;;-1.22;100.00;100876.13;4987531;28;20264;-44
2023/12/02 00:03:56;;;;;;;10.68;7.53;;;;;;;-1.33;100.00;100874.31;4981815;28;20192;-43
2023/12/02 00:06:21;;;;;;;11.30;7.82;;;;;;;-1.36;100.00;100874.25;4986169;28;20171;-40
2023/12/02 00:08:47;;;;;;;12.05;7.40;;;;;;;-1.36;100.00;100881.25;4984220;28;20186;-43
2023/12/02 00:11:12;;;;;;;12.05;7.20;;;;;;;-1.34;100.00;100885.66;4991252;28;20197;-44
2023/12/02 00:13:38;;;;;;;10.70;6.70;;;;;;;-1.29;100.00;100878.72;4986877;28;20209;-44
2023/12/02 00:16:05;;;;;;;9.63;7.18;;;;;;;-1.28;100.00;100880.47;4982420;28;20269;-44
2023/12/02 00:18:30;;;;;;;8.07;6.63;;;;;;;-1.25;100.00;100875.28;4983293;28;20181;-44
2023/12/02 00:20:56;;;;;;;11.27;8.13;;;;;;;-1.27;100.00;100874.38;4986184;28;20209;-42
2023/12/02 00:23:22;;;;;;;13.65;8.18;;;;;;;-1.28;100.00;100864.72;4984577;28;20260;-41
2023/12/02 00:25:47;;;;;;;12.15;7.35;;;;;;;-1.19;100.00;100870.94;4986688;28;20185;-44
2023/12/02 00:28:12;;;;;;;12.25;8.00;;;;;;;-1.26;100.00;100857.72;4985459;28;20533;-42
2023/12/02 00:30:38;;;;;;;10.77;7.78;;;;;;;-1.32;100.00;100862.03;4988843;28;20588;-42
2023/12/02 00:33:03;;;;;;;11.05;7.90;;;;;;;-1.30;100.00;100865.56;4989870;28;20607;-45
2023/12/02 00:35:29;;;;;;;10.57;6.93;;;;;;;-1.25;100.00;100854.25;4989603;28;20201;-43
2023/12/02 00:37:54;;;;;;;10.40;7.28;;;;;;;-1.22;100.00;100866.53;4966840;28;20252;-41
2023/12/02 00:40:20;;;;;;;10.20;7.78;;;;;;;-1.21;100.00;100849.88;4988512;28;20210;-42
2023/12/02 00:42:45;;;;;;;9.73;7.43;;;;;;;-1.19;100.00;100856.03;4985762;28;20200;-41
2023/12/02 00:45:11;;;;;;;9.85;6.90;;;;;;;-1.17;100.00;100850.81;4989113;28;20322;-43
2023/12/02 00:47:36;;;;;;;9.00;6.38;;;;;;;-1.14;100.00;100850.81;4983240;28;20181;-41
2023/12/02 00:50:02;;;;;;;8.73;6.22;;;;;;;-1.11;100.00;100850.88;4984393;28;20206;-42
2023/12/02 00:52:27;;;;;;;12.35;7.32;;;;;;;-1.11;100.00;100849.13;4988863;28;20185;-42
2023/12/02 00:54:53;;;;;;;8.07;6.50;;;;;;;-1.12;100.00;100849.09;4990364;28;20590;-41
2023/12/02 00:57:18;;;;;;;7.22;5.32;;;;;;;-1.16;100.00;100848.19;4989120;28;20687;-42
2023/12/02 00:59:44;;;;;;;5.57;4.97;;;;;;;-1.13;100.00;100856.09;4986964;28;20209;-43
2023/12/02 01:02:10;;;;;;;4.65;3.85;;;;;;;-1.08;100.00;100848.25;4987837;28;20264;-41
2023/12/02 01:04:36;;;;;;;7.15;6.03;;;;;;;-1.10;100.00;100850.88;4987792;28;20228;-42
2023/12/02 01:07:01;;;;;;;6.35;4.03;;;;;;;-1.10;100.00;100844.72;4991509;28;20705;-41
2023/12/02 01:09:27;;;;;;;5.35;4.15;;;;;;;-1.07;100.00;100845.66;4986467;28;20243;-42
2023/12/02 01:11:52;;;;;;;4.68;4.03;;;;;;;-1.05;100.00;100849.19;4988819;28;20213;-43
2023/12/02 01:14:18;;;;;;;6.28;4.35;;;;;;;-1.10;100.00;100842.97;4984584;28;20855;-43
2023/12/02 01:16:43;;;;;;;3.85;3.50;;;;;;;-1.10;100.00;100850.00;4989921;28;20181;-41
2023/12/02 01:19:09;;;;;;;4.80;3.92;;;;;;;-1.04;100.00;100843.03;4988390;28;20671;-41
2023/12/02 01:21:34;;;;;;;4.70;4.10;;;;;;;-1.10;100.00;100856.13;4984076;28;20707;-43
2023/12/02 01:23:59;;;;;;;4.20;3.20;;;;;;;-1.04;100.00;100855.31;4981011;28;20256;-43
2023/12/02 01:26:25;;;;;;;4.43;3.10;;;;;;;-0.97;100.00;100856.25;4986978;28;20276;-44
2023/12/02 01:28:50;;;;;;;5.65;3.83;;;;;;;-1.12;100.00;100854.34;4970882;28;20177;-42
2023/12/02 01:31:16;;;;;;;6.13;3.63;;;;;;;-1.13;100.00;100860.50;4985728;28;20262;-42
2023/12/02 01:33:41;;;;;;;3.25;2.95;;;;;;;-1.05;100.00;100861.41;4987810;28;20236;-42
2023/12/02 01:36:12;;;;;;;4.47;3.58;;;;;;;-1.00;100.00;100869.38;4990476;28;20181;-43
2023/12/02 01:38:39;;;;;;;3.58;3.28;;;;;;;-1.01;100.00;100870.22;4985026;28;20209;-41
2023/12/02 01:41:04;;;;;;;3.47;2.70;;;;;;;-1.00;100.00;100869.38;4989705;28;20717;-43
2023/12/02 01:43:30;;;;;;;4.18;2.90;;;;;;;-1.01;100.00;100872.88;4981167;28;20248;-41
2023/12/02 01:45:56;;;;;;;3.17;2.13;;;;;;;-1.04;100.00;100868.47;4987080;28;20276;-41
2023/12/02 01:48:29;;;;;;;2.13;1.92;;;;;;;-1.04;100.00;100863.19;4988058;28;20173;-42
2023/12/02 01:50:56;;;;;;;2.50;1.88;;;;;;;-1.03;100.00;100867.56;4989548;28;20212;-42
2023/12/02 01:53:21;;;;;;;1.95;1.75;;;;;;;-1.08;100.00;100864.91;4979507;28;20221;-44
2023/12/02 01:55:47;;;;;;;2.33;1.90;;;;;;;-1.05;100.00;100866.69;4985188;28;20456;-42
2023/12/02 01:58:12;;;;;;;3.03;2.10;;;;;;;-1.03;100.00;100864.94;4979680;28;20182;-41
2023/12/02 02:00:38;;;;;;;2.00;1.80;;;;;;;-1.07;100.00;100858.81;4990245;28;20220;-42
2023/12/02 02:03:03;;;;;;;2.80;1.83;;;;;;;-1.06;100.00;100865.81;4987718;28;20272;-44
2023/12/02 02:05:29;;;;;;;1.88;1.58;;;;;;;-1.06;100.00;100870.19;4984519;28;20505;-41
2023/12/02 02:07:54;;;;;;;2.00;1.60;;;;;;;-1.12;100.00;100868.38;4987917;28;20181;-41
2023/12/02 02:10:21;;;;;;;1.90;1.75;;;;;;;-1.13;100.00;100864.00;4990457;28;20221;-42
2023/12/02 02:12:46;;;;;;;2.47;1.90;;;;;;;-1.13;100.00;100881.53;4986990;28;20192;-42
2023/12/02 02:15:12;;;;;;;2.88;2.00;;;;;;;-1.13;100.00;100873.63;4989044;28;20198;-43
2023/12/02 02:17:38;;;;;;;2.20;2.00;;;;;;;-1.13;100.00;100877.13;4982237;28;20224;-40
2023/12/02 02:20:04;;;;;;;2.20;1.80;;;;;;;-1.13;100.00;100869.25;4988328;28;20563;-41
2023/12/02 02:22:30;;;;;;;4.93;1.98;;;;;;;-1.11;100.00;100880.66;4991010;28;20189;-42
2023/12/02 02:24:55;;;;;;;3.60;2.28;;;;;;;-1.07;100.00;100889.47;4991807;28;20185;-41
2023/12/02 02:27:21;;;;;;;3.10;2.47;;;;;;;-1.09;100.00;100883.31;4992656;28;20173;-40
2023/12/02 02:29:46;;;;;;;4.90;2.58;;;;;;;-1.05;100.00;100891.25;4991421;28;20206;-41
2023/12/02 02:32:12;;;;;;;2.58;2.38;;;;;;;-1.08;100.00;100890.31;4984848;28;20486;-42
2023/12/02 02:34:41;;;;;;;2.78;2.45;;;;;;;-1.07;100.00;100890.34;4994170;28;20201;-41
2023/12/02 02:37:07;;;;;;;3.95;2.72;;;;;;;-1.00;100.00;100886.03;4988347;28;20596;-42
2023/12/02 02:39:33;;;;;;;2.85;2.53;;;;;;;-1.00;100.00;100885.16;4992597;28;20197;-41
2023/12/02 02:41:58;;;;;;;3.05;2.63;;;;;;;-1.00;100.00;100882.53;4991271;28;20185;-43
2023/12/02 02:44:24;;;;;;;2.90;2.47;;;;;;;-1.04;100.00;100892.13;4988434;28;20185;-42
2023/12/02 02:46:49;;;;;;;2.90;2.58;;;;;;;-1.07;100.00;100885.09;4986235;28;20185;-43
2023/12/02 02:49:15;;;;;;;4.63;3.20;;;;;;;-1.09;100.00;100873.69;4986786;28;20245;-42
2023/12/02 02:51:40;;;;;;;3.67;3.05;;;;;;;-1.07;100.00;100881.59;4988794;28;20200;-43
2023/12/02 02:54:06;;;;;;;6.57;3.33;;;;;;;-1.07;100.00;100881.59;4985124;28;20295;-43
2023/12/02 02:56:31;;;;;;;3.63;2.83;;;;;;;-1.09;100.00;100876.31;4978041;28;20192;-42
2023/12/02 02:58:57;;;;;;;4.28;3.13;;;;;;;-1.04;100.00;100876.34;4984000;28;20196;-42
2023/12/02 03:01:22;;;;;;;3.78;3.33;;;;;;;-1.01;100.00;100872.88;4985369;28;20193;-44
2023/12/02 03:03:48;;;;;;;4.22;3.53;;;;;;;-1.04;100.00;100868.47;4986451;28;20336;-44
2023/12/02 03:06:14;;;;;;;4.32;3.30;;;;;;;-1.02;100.00;100864.09;4986599;28;20256;-41
2023/12/02 03:08:39;;;;;;;6.80;3.42;;;;;;;-1.05;100.00;100867.59;4987648;28;20257;-41
2023/12/02 03:11:06;;;;;;;4.68;3.50;;;;;;;-1.00;100.00;100874.66;4993620;28;20225;-44
2023/12/02 03:13:31;;;;;;;3.90;3.47;;;;;;;-1.04;100.00;100873.72;4988795;28;20186;-43
2023/12/02 03:15:57;;;;;;;4.10;3.25;;;;;;;-1.06;100.00;100870.19;4987507;28;20192;-43
2023/12/02 03:18:23;;;;;;;4.20;3.40;;;;;;;-1.01;100.00;100872.88;4989423;28;20389;-42
2023/12/02 03:20:48;;;;;;;4.75;3.60;;;;;;;-1.01;100.00;100881.63;4992353;28;20210;-42
2023/12/02 03:23:15;;;;;;;5.00;3.72;;;;;;;-1.03;100.00;100870.22;4990166;28;20524;-42
2023/12/02 03:25:40;;;;;;;3.55;3.20;;;;;;;-0.98;100.00;100880.81;4989846;28;20171;-41
2023/12/02 03:28:06;;;;;;;5.10;4.10;;;;;;;-1.03;100.00;100872.84;4994112;28;20601;-40
2023/12/02 03:30:32;;;;;;;6.47;4.72;;;;;;;-1.02;100.00;100876.38;4992317;28;20264;-42
2023/12/02 03:32:58;;;;;;;5.90;4.43;;;;;;;-1.06;100.00;100876.31;4976934;28;20181;-43
2023/12/02 03:35:24;;;;;;;6.18;4.38;;;;;;;-1.05;100.00;100871.94;4987406;28;20213;-43
2023/12/02 03:37:49;;;;;;;5.28;3.90;;;;;;;-1.08;100.00;100880.69;4985762;28;20567;-41
2023/12/02 03:40:15;;;;;;;5.68;4.10;;;;;;;-1.13;100.00;100873.63;4989477;28;20193;-43
2023/12/02 03:42:40;;;;;;;4.78;3.50;;;;;;;-1.10;100.00;100865.75;4993507;28;20568;-43
2023/12/02 03:45:06;;;;;;;4.60;3.80;;;;;;;-1.06;100.00;100875.44;4992743;28;20209;-41
2023/12/02 03:47:32;;;;;;;4.68;3.50;;;;;;;-1.10;100.00;100871.03;4993505;28;20264;-42
2023/12/02 03:49:58;;;;;;;5.18;3.30;;;;;;;-1.11;100.00;100879.78;4987720;28;20283;-41
2023/12/02 03:52:23;;;;;;;5.07;3.50;;;;;;;-1.09;100.00;100872.81;4986603;28;20181;-46
2023/12/02 03:54:49;;;;;;;5.85;3.97;;;;;;;-1.12;100.00;100870.13;4991001;28;20675;-44
2023/12/02 03:57:15;;;;;;;5.38;3.42;;;;;;;-1.15;100.00;100876.25;4992846;28;20169;-41
2023/12/02 03:59:40;;;;;;;5.13;4.10;;;;;;;-1.17;100.00;100882.34;4992514;28;20208;-44
2023/12/02 04:02:06;;;;;;;6.43;4.25;;;;;;;-1.13;100.00;100882.41;4990293;28;20555;-40
2023/12/02 04:04:32;;;;;;;7.43;4.05;;;;;;;-1.19;100.00;100881.44;4989529;28;20181;-42
2023/12/02 04:06:57;;;;;;;5.80;4.57;;;;;;;-1.15;100.00;100881.50;4981786;28;20181;-43
2023/12/02 04:09:23;;;;;;;6.60;4.50;;;;;;;-1.04;100.00;100879.84;4989151;28;20818;-43
2023/12/02 04:11:48;;;;;;;6.50;4.35;;;;;;;-1.08;100.00;100870.16;4979838;28;20643;-42
2023/12/02 04:14:14;;;;;;;6.53;4.30;;;;;;;-1.09;100.00;100872.81;4991909;28;20233;-42
2023/12/02 04:16:41;;;;;;;6.78;4.28;;;;;;;-1.10;100.00;100876.28;4976011;28;20747;-42
2023/12/02 04:19:08;;;;;;;4.72;4.10;;;;;;;-1.11;100.00;100870.16;4990065;28;20193;-44
2023/12/02 04:21:41;;;;;;;4.80;3.75;;;;;;;-1.16;100.00;100882.38;4986287;28;20637;-42
2023/12/02 04:24:06;;;;;;;5.95;4.43;;;;;;;-1.19;100.00;100890.22;4990836;28;20214;-41
2023/12/02 04:26:32;;;;;;;4.43;3.90;;;;;;;-1.15;100.00;100878.00;4987532;28;20201;-43
2023/12/02 04:28:57;;;;;;;4.80;4.18;;;;;;;-1.10;100.00;100886.81;4986096;28;20580;-40
2023/12/02 04:31:23;;;;;;;6.10;4.47;;;;;;;-1.19;100.00;100902.47;4992147;28;20283;-41
2023/12/02 04:33:48;;;;;;;6.05;4.43;;;;;;;-1.17;100.00;100899.00;4984163;28;20202;-42
2023/12/02 04:36:14;;;;;;;5.45;3.80;;;;;;;-1.15;100.00;100891.13;4991151;28;20243;-43
2023/12/02 04:38:40;;;;;;;5.30;4.40;;;;;;;-1.17;100.00;100888.47;4992235;28;20195;-42
2023/12/02 04:41:06;;;;;;;6.85;4.55;;;;;;;-1.21;100.00;100899.81;4975541;28;20272;-40
2023/12/02 04:43:32;;;;;;;5.50;4.50;;;;;;;-1.17;100.00;100898.13;4988350;28;20236;-42
2023/12/02 04:45:57;;;;;;;6.18;4.40;;;;;;;-1.19;100.00;100903.34;4990634;28;20176;-41
2023/12/02 04:48:22;;;;;;;7.93;4.90;;;;;;;-1.15;100.00;100909.53;4991756;28;20541;-42
2023/12/02 04:50:48;;;;;;;7.05;4.45;;;;;;;-1.23;100.00;100909.44;4983889;28;20255;-43
2023/12/02 04:53:13;;;;;;;5.88;4.32;;;;;;;-1.22;100.00;100905.97;4972184;28;20631;-43
2023/12/02 04:55:39;;;;;;;5.55;4.40;;;;;;;-1.14;100.00;100900.78;4989365;28;20208;-43
2023/12/02 04:58:05;;;;;;;6.18;4.20;;;;;;;-1.20;100.00;100914.75;4990786;28;20686;-42
2023/12/02 05:00:31;;;;;;;6.13;4.75;;;;;;;-1.14;100.00;100916.56;4987559;28;20201;-44
2023/12/02 05:02:56;;;;;;;8.38;4.72;;;;;;;-1.21;100.00;100909.47;4989654;28;20257;-42
2023/12/02 05:05:22;;;;;;;5.90;4.55;;;;;;;-1.27;100.00;100911.19;5013677;22;20225;-43
2023/12/02 05:07:47;;;;;;;7.63;4.68;;;;;;;-1.32;100.00;100912.84;4983556;28;20190;-45
2023/12/02 05:10:13;;;;;;;6.38;4.20;;;;;;;-1.29;100.00;100920.78;4978759;28;20205;-44
2023/12/02 05:12:38;;;;;;;6.20;4.30;;;;;;;-1.33;100.00;100924.25;4963104;28;20166;-44
2023/12/02 05:15:04;;;;;;;6.72;4.10;;;;;;;-1.29;100.00;100922.50;4961474;28;20210;-44
2023/12/02 05:17:30;;;;;;;5.72;4.13;;;;;;;-1.37;100.00;100921.56;4965173;28;20637;-43
2023/12/02 05:19:56;;;;;;;7.25;4.95;;;;;;;-1.32;100.00;100915.47;4968063;28;20741;-45
2023/12/02 05:22:22;;;;;;;4.72;3.90;;;;;;;-1.35;100.00;100919.84;4970151;28;20710;-45
2023/12/02 05:24:48;;;;;;;7.53;4.28;;;;;;;-1.29;100.00;100931.31;4967142;28;20170;-44
2023/12/02 05:27:14;;;;;;;5.43;3.85;;;;;;;-1.33;100.00;100921.63;4964184;28;20792;-46
2023/12/02 05:29:39;;;;;;;4.53;3.65;;;;;;;-1.27;100.00;100918.16;4965748;28;20549;-46
2023/12/02 05:32:05;;;;;;;5.35;3.53;;;;;;;-1.31;100.00;100927.78;4968217;28;20174;-44
2023/12/02 05:34:33;;;;;;;3.65;3.35;;;;;;;-1.43;100.00;100924.97;4965263;28;20664;-43
2023/12/02 05:36:58;;;;;;;5.65;3.72;;;;;;;-1.32;100.00;100930.38;4967597;28;20623;-44
2023/12/02 05:39:24;;;;;;;3.28;2.97;;;;;;;-1.33;100.00;100924.25;4959903;28;20198;-43
2023/12/02 05:41:49;;;;;;;3.42;3.05;;;;;;;-1.37;100.00;100932.06;4972426;28;20205;-44
2023/12/02 05:44:15;;;;;;;4.15;3.38;;;;;;;-1.42;100.00;100924.13;4966234;28;20236;-46
2023/12/02 05:46:41;;;;;;;5.00;3.28;;;;;;;-1.45;100.00;100926.72;4960945;28;20179;-44
2023/12/02 05:49:07;;;;;;;5.63;3.70;;;;;;;-1.46;100.00;100924.97;4960579;28;20196;-43
2023/12/02 05:51:33;;;;;;;5.90;3.40;;;;;;;-1.50;100.00;100925.78;4966117;28;20280;-42
2023/12/02 05:53:59;;;;;;;5.57;3.85;;;;;;;-1.44;100.00;100925.88;4974004;28;20198;-46
2023/12/02 05:56:25;;;;;;;3.88;3.10;;;;;;;-1.38;100.00;100931.16;4970668;28;20197;-44
2023/12/02 05:58:50;;;;;;;5.57;3.67;;;;;;;-1.37;100.00;100932.06;4963858;28;20266;-44
2023/12/02 06:01:22;;;;;;;4.25;3.53;;;;;;;-1.45;100.00;100922.31;4961624;28;20622;-45
2023/12/02 06:03:48;;;;;;;5.28;3.83;;;;;;;-1.45;100.00;100930.22;4967407;28;20194;-42
2023/12/02 06:06:14;;;;;;;7.97;4.28;;;;;;;-1.43;100.00;100927.63;4970614;28;20218;-44
2023/12/02 06:08:40;;;;;;;8.15;4.72;;;;;;;-1.34;100.00;100935.59;4962333;28;20186;-45
2023/12/02 06:11:06;;;;;;;4.55;3.83;;;;;;;-1.40;100.00;100938.19;4961782;28;20225;-44
2023/12/02 06:13:31;;;;;;;7.55;4.03;;;;;;;-1.51;100.00;100934.50;4965974;28;20667;-42
2023/12/02 06:15:57;;;;;;;5.82;4.32;;;;;;;-1.53;100.00;100928.34;4968346;28;20230;-44
2023/12/02 06:18:23;;;;;;;8.40;4.15;;;;;;;-1.51;100.00;100940.66;4958204;28;20189;-43
2023/12/02 06:20:48;;;;;;;5.53;4.78;;;;;;;-1.43;100.00;100943.38;4958609;28;20224;-43
2023/12/02 06:23:14;;;;;;;6.40;4.57;;;;;;;-1.51;100.00;100945.00;4968022;28;20213;-43
2023/12/02 06:25:39;;;;;;;8.20;4.55;;;;;;;-1.52;100.00;100938.88;4964639;28;20178;-43
2023/12/02 06:28:05;;;;;;;6.25;4.47;;;;;;;-1.59;100.00;100944.94;4965185;28;20279;-43
2023/12/02 06:30:31;;;;;;;5.40;3.97;;;;;;;-1.51;100.00;100945.00;4957984;28;20290;-43
2023/12/02 06:32:57;;;;;;;5.82;4.38;;;;;;;-1.51;100.00;100959.06;4968278;28;20190;-43
2023/12/02 06:35:22;;;;;;;5.93;4.50;;;;;;;-1.51;100.00;100956.44;4965499;28;20201;-44
2023/12/02 06:37:48;;;;;;;7.28;4.75;;;;;;;-1.57;100.00;100958.97;4966388;28;20273;-43
2023/12/02 06:40:13;;;;;;;5.95;4.15;;;;;;;-1.65;100.00;100963.22;4961974;28;20206;-43
2023/12/02 06:42:39;;;;;;;6.72;4.55;;;;;;;-1.59;100.00;100962.44;4959455;28;20186;-43
2023/12/02 06:45:05;;;;;;;6.05;4.80;;;;;;;-1.58;100.00;100959.81;4966885;28;20253;-44
2023/12/02 06:47:31;;;;;;;6.78;4.40;;;;;;;-1.61;100.00;100957.16;4970418;28;20189;-44
2023/12/02 06:49:56;;;;;;;4.57;3.92;;;;;;;-1.58;100.00;100975.59;4964078;28;20205;-43
2023/12/02 06:52:22;;;;;;;7.32;4.32;;;;;;;-1.58;100.00;100975.59;4963368;28;20736;-43
2023/12/02 06:54:47;;;;;;;6.88;4.88;;;;;;;-1.56;100.00;100979.13;4968593;28;20731;-45
2023/12/02 06:57:13;;;;;;;5.30;4.28;;;;;;;-1.51;100.00;100981.81;4969129;28;20291;-44
2023/12/02 06:59:38;;;;;;;7.45;4.63;;;;;;;-1.55;100.00;100980.91;4966100;28;20228;-43
2023/12/02 07:02:04;;;;;;;7.03;4.43;;;;;;;-1.52;100.00;100980.06;4960221;28;20191;-43
2023/12/02 07:04:29;;;;;;;6.35;4.60;;;;;;;-1.51;100.00;100992.31;4961811;28;20198;-44
2023/12/02 07:06:55;;;;;;;6.85;4.78;;;;;;;-1.51;100.00;100979.19;4975954;28;20178;-43
2023/12/02 07:09:20;;;;;;;5.88;4.00;;;;;;;-1.48;100.00;100984.50;4969091;28;20818;-44
2023/12/02 07:11:46;;;;;;;9.73;4.50;;;;;;;-1.50;100.00;100994.09;4966646;28;20182;-45
2023/12/02 07:14:11;;;;;;;8.05;4.65;;;;;;;-1.50;100.00;100988.84;4970670;28;20696;-44
2023/12/02 07:16:37;;;;;;;6.32;4.88;;;;;;;-1.53;100.00;101004.53;4970523;28;20215;-43
2023/12/02 07:19:02;;;;;;;6.80;5.10;;;;;;;-1.51;100.00;101008.06;4970113;28;20270;-43
2023/12/02 07:21:29;;;;;;;7.88;4.93;;;;;;;-1.50;100.00;101012.50;4974526;28;20202;-44
2023/12/02 07:23:54;;;;;;;6.35;4.78;;;;;;;-1.49;100.00;101006.34;4974386;28;20216;-46
2023/12/02 07:26:20;;;;;;;4.82;4.28;;;;;;;-1.49;100.00;101008.97;4973819;28;20221;-46
2023/12/02 07:28:45;;;;;;;6.07;4.45;;;;;;;-1.54;100.00;101016.81;4973637;28;20641;-46
2023/12/02 07:31:15;;;;;;;6.47;4.63;;;;;;;-1.53;100.00;101021.22;4971658;28;20190;-46
2023/12/02 07:33:41;;;;;;;6.57;4.80;;;;;;;-1.52;100.00;101022.09;4973397;28;20703;-44
2023/12/02 07:36:07;;;;;;;7.40;4.75;;;;;;;-1.47;100.00;101018.66;4973651;28;20170;-45
2023/12/02 07:38:33;;;;;;;5.80;4.82;;;;;;;-1.43;100.00;101027.47;4973582;28;20871;-44
2023/12/02 07:40:59;;;;;;;7.43;5.25;;;;;;;-1.42;100.00;101036.22;4973854;28;20218;-46
2023/12/02 07:43:25;;;;;;;6.70;4.90;;;;;;;-1.42;100.00;101034.50;4973408;28;20274;-45
2023/12/02 07:45:50;;;;;;;7.45;4.80;;;;;;;-1.44;100.00;101033.59;4974080;28;20174;-44
2023/12/02 07:48:16;;;;;;;6.80;4.90;;;;;;;-1.42;100.00;101039.75;4974235;28;20166;-43
2023/12/02 07:50:42;;;;;;;6.88;5.40;;;;;;;-1.48;100.00;101037.03;4974127;28;20198;-45
2023/12/02 07:53:08;;;;;;;12.20;5.47;;;;;;;-1.44;100.00;101038.84;4974323;28;20209;-42
2023/12/02 07:55:33;;;;;;;6.78;4.80;;;;;;;-1.42;100.00;101042.38;4974402;28;20190;-44
2023/12/02 07:57:59;;;;;;;8.98;5.50;;;;;;;-1.42;100.00;101047.66;4974625;28;20590;-45
2023/12/02 08:00:25;;;;;;;8.85;5.85;;;;;;;-1.40;100.00;101039.75;4974025;28;20624;-45
2023/12/02 08:02:50;;;;;;;6.05;4.78;;;;;;;-1.36;100.00;101047.72;4974189;28;20190;-44
2023/12/02 08:05:15;;;;;;;7.35;6.05;;;;;;;-1.50;100.00;101049.28;4973809;28;20656;-44
2023/12/02 08:07:41;;;;;;;7.70;4.65;;;;;;;-1.43;100.00;101037.97;4973346;28;20220;-46
2023/12/02 08:10:07;;;;;;;5.68;4.90;;;;;;;-1.43;100.00;101051.13;4973381;28;20241;-46
2023/12/02 08:12:33;;;;;;;6.57;5.07;;;;;;;-1.41;100.00;101052.03;4973724;28;20220;-43
2023/12/02 08:14:59;;;;;;;7.00;5.18;;;;;;;-1.47;100.00;101044.94;4973357;28;20280;-44
2023/12/02 08:17:25;;;;;;;7.53;5.95;;;;;;;-1.45;100.00;101045.84;4973113;28;20194;-45
2023/12/02 08:19:50;;;;;;;6.03;4.80;;;;;;;-1.50;100.00;101046.66;4973197;28;20252;-44
2023/12/02 08:22:19;;;;;;;6.03;4.53;;;;;;;-1.49;100.00;101048.41;4971946;28;20186;-46
2023/12/02 08:24:45;;;;;;;7.40;4.53;;;;;;;-1.47;100.00;101054.56;4973266;28;20314;-46
2023/12/02 08:27:11;;;;;;;6.18;4.65;;;;;;;-1.39;100.00;101065.19;4972019;28;20177;-45
2023/12/02 08:29:36;;;;;;;7.25;4.85;;;;;;;-1.34;100.00;101067.00;4972965;28;20747;-45
2023/12/02 08:32:03;;;;;;;6.82;4.72;;;;;;;-1.29;100.00;101062.72;4973435;28;20192;-44
2023/12/02 08:34:29;;;;;;;4.85;4.35;;;;;;;-1.28;100.00;101067.09;4972986;28;20218;-44
2023/12/02 08:36:55;;;;;;;4.82;3.92;;;;;;;-1.33;100.00;101073.19;4973395;28;20176;-44
2023/12/02 08:39:21;;;;;;;5.97;4.60;;;;;;;-1.38;100.00;101069.56;4973109;28;20182;-44
2023/12/02 08:41:47;;;;;;;5.78;4.60;;;;;;;-1.38;100.00;101069.56;4973123;28;20205;-46
2023/12/02 08:44:12;;;;;;;5.30;4.30;;;;;;;-1.41;100.00;101069.53;4971936;28;20241;-44
2023/12/02 08:46:38;;;;;;;4.82;4.32;;;;;;;-1.47;100.00;101080.84;4973213;28;20185;-45
2023/12/02 08:49:04;;;;;;;5.47;4.40;;;;;;;-1.45;100.00;101068.59;4973764;28;20192;-44
2023/12/02 08:51:29;;;;;;;8.68;4.72;;;;;;;-1.52;100.00;101085.16;4973666;28;20198;-44
2023/12/02 08:53:59;;;;;;;6.65;5.05;;;;;;;-1.44;100.00;101096.66;4972986;28;20218;-44
2023/12/02 08:56:26;;;;;;;6.43;4.82;;;;;;;-1.49;100.00;101100.94;4973453;28;20531;-47
2023/12/02 08:58:52;;;;;;;5.43;4.88;;;;;;;-1.45;100.00;101092.25;4973021;28;20182;-44
2023/12/02 09:01:17;;;;;;;5.78;4.50;;;;;;;-1.44;100.00;101104.56;4971675;28;20209;-45
2023/12/02 09:03:43;;;;;;;7.40;4.70;;;;;;;-1.48;100.00;101108.88;4972762;28;20178;-44
2023/12/02 09:06:09;;;;;;;7.53;4.63;;;;;;;-1.47;100.00;101092.22;4972896;28;20309;-46
2023/12/02 09:08:34;;;;;;;6.28;4.60;;;;;;;-1.53;100.00;101088.63;4972822;28;20190;-44
2023/12/02 09:11:00;;;;;;;6.93;5.20;;;;;;;-1.42;100.00;101097.56;4972763;28;20225;-44
2023/12/02 09:13:48;;;;;;;7.05;4.97;;;;;;;-1.45;100.00;101098.38;4972651;28;20180;-45
2023/12/02 09:16:26;;;;;;;6.25;4.60;;;;;;;-1.30;100.00;101092.47;4972692;28;20170;-44
2023/12/02 09:18:52;;;;;;;9.10;5.40;;;;;;;-1.28;100.00;101103.03;4973226;28;20158;-46
2023/12/02 09:21:21;;;;;;;7.50;5.00;;;;;;;-1.22;100.00;101103.13;4972642;28;20676;-45
2023/12/02 09:23:47;;;;;;;9.02;5.20;;;;;;;-1.28;100.00;101103.91;4972524;28;20821;-42
2023/12/02 09:26:27;;;;;;;7.00;5.53;;;;;;;-1.21;100.00;101106.63;4972543;28;20623;-44
2023/12/02 09:28:56;;;;;;;5.65;4.68;;;;;;;-1.09;100.00;101104.19;4970875;28;20186;-46
2023/12/02 09:31:23;;;;;;;9.85;6.07;;;;;;;-0.92;100.00;101109.66;4971796;28;20688;-45
2023/12/02 09:34:00;;;;;;;36.42;17.20;;;;;;;-0.96;100.00;101098.22;4972011;28;20166;-46
2023/12/02 09:36:32;;;;;;;50.47;21.15;;;;;;;-0.71;100.00;101109.91;4971991;28;20189;-48
2023/12/02 09:39:18;;;;;;;16.05;7.95;;;;;;;-0.55;100.00;101105.72;4971909;28;20201;-48
2023/12/02 09:42:02;;;;;;;9.13;5.50;;;;;;;-0.53;100.00;101118.91;4971743;28;20240;-44
2023/12/02 09:44:51;;;;;;;5.97;4.90;;;;;;;-0.68;100.00;101109.97;4971702;28;20670;-46
2023/12/02 09:47:19;;;;;;;4.72;4.10;;;;;;;-0.49;100.00;101111.06;4971712;28;20186;-41
2023/12/02 09:49:52;;;;;;;6.00;4.57;;;;;;;-0.77;100.00;101111.59;4971492;28;20208;-45
2023/12/02 09:52:53;;;;;;;7.53;4.15;;;;;;;-0.85;100.00;101117.66;4971854;28;20667;-44
2023/12/02 09:55:53;;;;;;;6.70;4.85;;;;;;;-0.68;100.00;101109.06;4911696;29;20219;-47
2023/12/02 09:58:37;;;;;;;8.15;4.53;;;;;;;-0.85;100.00;101112.38;4966709;28;20289;-43
2023/12/02 10:01:13;;;;;;;5.75;4.47;;;;;;;-0.75;100.00;101115.13;4971546;28;20204;-46
2023/12/02 10:04:30;;;;;;;7.93;5.93;;;;;;;-0.77;100.00;101112.47;4971675;28;20188;-45
2023/12/02 10:06:55;;;;;;;6.18;4.50;;;;;;;-0.64;100.00;101102.97;4959837;28;20553;-48
2023/12/02 10:09:30;;;;;;;5.93;4.68;;;;;;;-0.54;100.00;101109.25;4970006;28;20197;-44
2023/12/02 10:12:22;;;;;;;6.68;4.43;;;;;;;-0.35;100.00;101102.44;4970553;28;20186;-43
2023/12/02 10:14:58;;;;;;;5.70;4.38;;;;;;;-0.64;100.00;101095.09;4971696;28;20285;-45
2023/12/02 10:17:26;;;;;;;6.07;4.60;;;;;;;-0.49;100.00;101103.16;4972043;28;20229;-46
2023/12/02 10:19:55;;;;;;;6.25;4.50;;;;;;;-0.29;100.00;101098.09;4971576;28;20213;-45
2023/12/02 10:22:27;;;;;;;6.65;4.93;;;;;;;-0.16;100.00;101103.50;4971934;28;20185;-46
2023/12/02 10:25:36;;;;;;;5.70;4.38;;;;;;;-0.08;100.00;101105.34;4971643;28;20528;-45
2023/12/02 10:28:30;;;;;;;5.90;4.40;;;;;;;-0.45;100.00;101101.47;4966270;28;20202;-44
2023/12/02 10:30:59;;;;;;;8.93;5.30;;;;;;;-0.54;100.00;101098.72;4967540;28;20224;-47
2023/12/02 10:33:27;;;;;;;7.13;4.78;;;;;;;-0.40;100.00;101097.13;4971778;28;20272;-44
2023/12/02 10:36:05;;;;;;;5.13;4.45;;;;;;;-0.27;100.00;101093.75;4972151;28;20677;-44
2023/12/02 10:39:09;;;;;;;8.73;5.03;;;;;;;-0.38;100.00;101089.25;4972328;28;20173;-44
2023/12/02 10:41:58;;;;;;;5.68;4.53;;;;;;;-0.27;100.00;101096.38;4975571;28;20237;-43
2023/12/02 10:44:26;;;;;;;6.72;4.40;;;;;;;-0.16;100.00;101082.44;4975517;28;20190;-46
2023/12/02 10:46:53;;;;;;;6.35;4.53;;;;;;;-0.06;100.00;101097.47;4975541;28;20221;-43
2023/12/02 10:49:20;;;;;;;10.25;5.90;;;;;;;0.04;100.00;101085.25;4974139;28;20186;-46
2023/12/02 10:51:49;;;;;;;8.30;7.18;;;;;;;0.14;100.00;101085.34;4975588;28;20217;-45
2023/12/02 10:54:17;;;;;;;14.10;9.52;;;;;;;0.22;100.00;101082.81;4975319;28;20198;-44
2023/12/02 10:56:46;;;;;;;11.13;6.50;;;;;;;0.16;100.00;101086.25;4975418;28;20194;-44
2023/12/02 10:59:12;;;;;;;6.25;5.35;;;;;;;0.35;100.00;101081.13;4975160;28;20326;-46
2023/12/02 11:01:49;;;;;;;5.50;4.68;;;;;;;0.41;100.00;101082.03;4975230;28;20218;-45
2023/12/02 11:04:31;;;;;;;5.78;3.80;;;;;;;0.44;100.00;101085.56;5012892;23;20230;-48
2023/12/02 11:07:07;;;;;;;6.00;4.35;;;;;;;0.32;100.00;101092.53;5053503;28;20698;-42
2023/12/02 11:10:03;;;;;;;4.65;3.88;;;;;;;0.33;100.00;101088.16;5053376;28;20630;-44
2023/12/02 11:12:46;;;;;;;6.35;4.32;;;;;;;0.50;100.00;101096.16;5053575;28;20179;-45
2023/12/02 11:15:13;;;;;;;4.63;3.70;;;;;;;0.45;100.00;101095.25;5053261;28;20697;-44
2023/12/02 11:17:41;;;;;;;5.80;4.18;;;;;;;0.49;100.00;101089.16;5053278;28;20187;-46
2023/12/02 11:20:15;;;;;;;4.57;3.80;;;;;;;0.50;100.00;101078.59;5053101;28;20195;-44